createdAt,value
2023-06-08T00:03:40.550Z,44.00
2023-06-08T00:18:42.251Z,44.00
2023-06-08T00:33:43.787Z,44.00
2023-06-08T00:48:45.449Z,44.10
2023-06-08T01:03:46.979Z,44.10
2023-06-08T01:18:48.517Z,44.10
2023-06-08T01:33:50.162Z,44.20
2023-06-08T01:48:51.668Z,44.20
2023-06-08T02:03:53.191Z,44.20
2023-06-08T02:18:54.693Z,44.40
2023-06-08T02:33:56.192Z,44.20
2023-06-08T02:48:57.691Z,44.30
2023-06-08T03:03:59.240Z,44.30
2023-06-08T03:19:00.800Z,44.20
2023-06-08T03:34:02.399Z,44.30
2023-06-08T03:49:04.045Z,44.30
2023-06-08T04:04:05.592Z,44.40
2023-06-08T04:19:07.131Z,44.40
2023-06-08T04:34:08.623Z,44.40
2023-06-08T04:49:10.144Z,44.40
2023-06-08T05:04:11.814Z,44.40
2023-06-08T05:19:13.397Z,44.50
2023-06-08T05:34:14.908Z,44.50
2023-06-08T05:49:16.488Z,44.40
2023-06-08T06:04:31.081Z,44.40
2023-06-08T06:19:38.076Z,44.50
2023-06-08T06:34:39.804Z,44.50
2023-06-08T06:49:41.329Z,44.50
2023-06-08T07:04:42.834Z,44.40
2023-06-08T07:19:44.369Z,44.30
2023-06-08T07:34:46.449Z,44.00
2023-06-08T07:49:48.002Z,43.90
2023-06-08T08:04:49.632Z,43.70
2023-06-08T08:19:51.209Z,43.60
2023-06-08T08:34:52.732Z,43.50
2023-06-08T08:49:54.256Z,43.60
2023-06-08T09:04:55.774Z,43.60
2023-06-08T09:19:57.312Z,43.40
2023-06-08T09:35:01.064Z,43.30
2023-06-08T09:50:04.142Z,43.00
2023-06-08T10:05:06.027Z,42.90
2023-06-08T10:20:07.692Z,43.20
2023-06-08T10:35:09.440Z,43.50
2023-06-08T10:50:11.258Z,43.50
2023-06-08T11:05:13.021Z,43.70
2023-06-08T11:20:14.766Z,43.70
2023-06-08T11:35:16.315Z,43.70
2023-06-08T11:50:17.831Z,43.80
2023-06-08T12:05:20.868Z,43.80
2023-06-08T12:20:23.983Z,43.90
2023-06-08T12:35:25.489Z,43.90
2023-06-08T12:50:27.005Z,44.00
2023-06-08T13:05:28.500Z,44.00
2023-06-08T13:20:30.007Z,44.10
2023-06-08T13:35:31.683Z,44.30
2023-06-08T13:50:33.262Z,44.40
2023-06-08T14:05:34.771Z,44.60
2023-06-08T14:20:36.291Z,44.60
2023-06-08T14:35:37.846Z,44.70
2023-06-08T14:50:39.408Z,44.60
2023-06-08T15:05:40.915Z,44.60
2023-06-08T15:20:42.406Z,44.50
2023-06-08T15:35:43.909Z,44.40
2023-06-08T15:50:45.423Z,44.80
2023-06-08T16:05:48.013Z,45.20
2023-06-08T16:20:49.605Z,45.40
2023-06-08T16:35:53.111Z,45.60
2023-06-08T16:50:55.066Z,45.90
2023-06-08T17:05:56.561Z,45.80
2023-06-08T17:20:58.081Z,45.70
2023-06-08T17:35:59.596Z,45.50
2023-06-08T17:51:01.109Z,45.60
2023-06-08T18:06:15.682Z,45.50
2023-06-08T18:21:24.069Z,45.30
2023-06-08T18:36:25.556Z,45.20
2023-06-08T18:51:27.066Z,45.10
2023-06-08T19:06:28.566Z,45.20
2023-06-08T19:21:30.081Z,45.40
2023-06-08T19:36:31.585Z,45.30
2023-06-08T19:51:33.122Z,45.30
2023-06-08T20:06:34.618Z,45.30
2023-06-08T20:21:36.140Z,45.30
2023-06-08T20:36:37.631Z,45.20
2023-06-08T20:51:39.160Z,46.30
2023-06-08T21:06:40.770Z,45.40
2023-06-08T21:21:42.304Z,45.60
2023-06-08T21:36:43.800Z,45.80
2023-06-08T21:51:45.292Z,46.00
2023-06-08T22:06:46.796Z,46.10
2023-06-08T22:21:48.269Z,46.50
2023-06-08T22:36:50.877Z,46.80
2023-06-08T22:51:52.377Z,47.00
2023-06-08T23:06:53.877Z,46.90
2023-06-08T23:21:55.382Z,46.90
2023-06-08T23:36:56.867Z,47.00
2023-06-08T23:51:58.388Z,46.70
